sensor_id;sensor_type;location;lat;lon;timestamp;pressure;altitude;pressure_sealevel;temperature;humidity
70229;BME280;57617;51.988;5.854;2023-02-11T00:01:36;102916.28;;;9.29;70.35
70229;BME280;57617;51.988;5.854;2023-02-11T00:04:03;102914.59;;;9.28;69.67
70229;BME280;57617;51.988;5.854;2023-02-11T00:06:30;102905.25;;;9.31;69.92
70229;BME280;57617;51.988;5.854;2023-02-11T00:08:56;102911.88;;;9.28;70.37
70229;BME280;57617;51.988;5.854;2023-02-11T00:11:23;102919.19;;;9.28;70.24
70229;BME280;57617;51.988;5.854;2023-02-11T00:13:59;102925.13;;;9.23;70.04
70229;BME280;57617;51.988;5.854;2023-02-11T00:16:25;102928.16;;;9.28;70.14
70229;BME280;57617;51.988;5.854;2023-02-11T00:18:51;102916.47;;;9.28;70.43
70229;BME280;57617;51.988;5.854;2023-02-11T00:21:21;102914.41;;;9.30;69.76
70229;BME280;57617;51.988;5.854;2023-02-11T00:23:47;102910.88;;;9.29;69.80
70229;BME280;57617;51.988;5.854;2023-02-11T00:26:32;102912.56;;;9.30;69.82
70229;BME280;57617;51.988;5.854;2023-02-11T00:28:59;102907.84;;;9.24;70.06
70229;BME280;57617;51.988;5.854;2023-02-11T00:31:25;102917.50;;;9.27;70.32
70229;BME280;57617;51.988;5.854;2023-02-11T00:33:51;102914.97;;;9.25;69.74
70229;BME280;57617;51.988;5.854;2023-02-11T00:36:22;102913.06;;;9.26;69.83
70229;BME280;57617;51.988;5.854;2023-02-11T00:38:49;102920.22;;;9.27;69.81
70229;BME280;57617;51.988;5.854;2023-02-11T00:41:16;102922.53;;;9.30;70.13
70229;BME280;57617;51.988;5.854;2023-02-11T00:43:42;102913.75;;;9.28;69.67
70229;BME280;57617;51.988;5.854;2023-02-11T00:46:07;102923.41;;;9.30;69.58
70229;BME280;57617;51.988;5.854;2023-02-11T00:48:33;102929.31;;;9.34;70.03
70229;BME280;57617;51.988;5.854;2023-02-11T00:50:58;102926.75;;;9.32;69.67
70229;BME280;57617;51.988;5.854;2023-02-11T00:53:23;102922.53;;;9.30;69.67
70229;BME280;57617;51.988;5.854;2023-02-11T00:55:50;102934.44;;;9.29;69.85
70229;BME280;57617;51.988;5.854;2023-02-11T00:58:15;102924.44;;;9.29;69.90
70229;BME280;57617;51.988;5.854;2023-02-11T01:00:40;102932.34;;;9.31;70.00
70229;BME280;57617;51.988;5.854;2023-02-11T01:03:06;102932.56;;;9.29;69.61
70229;BME280;57617;51.988;5.854;2023-02-11T01:05:31;102924.78;;;9.26;69.65
70229;BME280;57617;51.988;5.854;2023-02-11T01:07:57;102891.34;;;9.11;70.24
70229;BME280;57617;51.988;5.854;2023-02-11T01:10:22;102912.91;;;9.27;69.90
70229;BME280;57617;51.988;5.854;2023-02-11T01:12:47;102904.78;;;9.27;69.78
70229;BME280;57617;51.988;5.854;2023-02-11T01:15:15;102895.59;;;9.28;69.60
70229;BME280;57617;51.988;5.854;2023-02-11T01:17:41;102888.69;;;9.26;69.76
70229;BME280;57617;51.988;5.854;2023-02-11T01:20:10;102884.09;;;9.26;69.59
70229;BME280;57617;51.988;5.854;2023-02-11T01:22:36;102885.13;;;9.25;69.92
70229;BME280;57617;51.988;5.854;2023-02-11T01:25:04;102887.16;;;9.23;70.02
70229;BME280;57617;51.988;5.854;2023-02-11T01:27:29;102884.66;;;9.22;70.13
70229;BME280;57617;51.988;5.854;2023-02-11T01:29:55;102879.25;;;9.22;70.16
70229;BME280;57617;51.988;5.854;2023-02-11T01:32:20;102873.31;;;9.18;69.88
70229;BME280;57617;51.988;5.854;2023-02-11T01:34:45;102873.56;;;9.09;70.08
70229;BME280;57617;51.988;5.854;2023-02-11T01:37:12;102885.34;;;9.16;69.93
70229;BME280;57617;51.988;5.854;2023-02-11T01:39:37;102899.78;;;9.16;69.97
70229;BME280;57617;51.988;5.854;2023-02-11T01:42:03;102897.41;;;9.13;69.94
70229;BME280;57617;51.988;5.854;2023-02-11T01:46:54;102901.28;;;9.19;70.12
70229;BME280;57617;51.988;5.854;2023-02-11T01:49:29;102912.78;;;9.21;69.72
70229;BME280;57617;51.988;5.854;2023-02-11T01:52:16;102909.06;;;9.22;69.89
70229;BME280;57617;51.988;5.854;2023-02-11T01:54:50;102910.38;;;9.26;69.70
70229;BME280;57617;51.988;5.854;2023-02-11T01:57:37;102909.72;;;9.24;69.28
70229;BME280;57617;51.988;5.854;2023-02-11T02:00:27;102908.84;;;9.23;70.02
70229;BME280;57617;51.988;5.854;2023-02-11T02:03:07;102902.63;;;9.23;70.09
70229;BME280;57617;51.988;5.854;2023-02-11T02:05:35;102912.25;;;9.25;70.09
70229;BME280;57617;51.988;5.854;2023-02-11T02:08:16;102913.28;;;9.24;69.62
70229;BME280;57617;51.988;5.854;2023-02-11T02:10:46;102899.59;;;9.18;69.63
70229;BME280;57617;51.988;5.854;2023-02-11T02:13:13;102909.72;;;9.24;69.88
70229;BME280;57617;51.988;5.854;2023-02-11T02:15:40;102912.59;;;9.22;70.04
70229;BME280;57617;51.988;5.854;2023-02-11T02:26:57;102885.34;;;9.16;69.90
70229;BME280;57617;51.988;5.854;2023-02-11T02:35:19;102870.97;;;9.15;70.12
70229;BME280;57617;51.988;5.854;2023-02-11T02:38:00;102860.13;;;9.15;69.96
70229;BME280;57617;51.988;5.854;2023-02-11T02:40:30;102860.31;;;9.14;70.06
70229;BME280;57617;51.988;5.854;2023-02-11T02:42:58;102863.56;;;9.09;69.88
70229;BME280;57617;51.988;5.854;2023-02-11T02:45:25;102865.72;;;9.14;70.18
70229;BME280;57617;51.988;5.854;2023-02-11T02:47:50;102867.41;;;9.15;69.89
70229;BME280;57617;51.988;5.854;2023-02-11T02:50:20;102869.94;;;9.16;70.26
70229;BME280;57617;51.988;5.854;2023-02-11T02:55:47;102866.91;;;9.19;69.99
70229;BME280;57617;51.988;5.854;2023-02-11T02:58:47;102870.81;;;9.17;70.42
70229;BME280;57617;51.988;5.854;2023-02-11T03:07:09;102868.63;;;9.12;70.76
70229;BME280;57617;51.988;5.854;2023-02-11T03:09:42;102854.41;;;9.10;69.95
70229;BME280;57617;51.988;5.854;2023-02-11T03:12:11;102850.69;;;9.11;70.46
70229;BME280;57617;51.988;5.854;2023-02-11T03:14:39;102851.72;;;9.10;70.51
70229;BME280;57617;51.988;5.854;2023-02-11T03:17:07;102855.78;;;9.06;70.46
70229;BME280;57617;51.988;5.854;2023-02-11T03:19:36;102853.94;;;9.07;70.53
70229;BME280;57617;51.988;5.854;2023-02-11T03:22:07;102851.03;;;9.08;70.46
70229;BME280;57617;51.988;5.854;2023-02-11T03:24:37;102851.22;;;9.07;70.50
70229;BME280;57617;51.988;5.854;2023-02-11T03:27:17;102853.09;;;9.06;70.46
70229;BME280;57617;51.988;5.854;2023-02-11T03:29:54;102855.97;;;9.05;70.37
70229;BME280;57617;51.988;5.854;2023-02-11T03:32:31;102845.13;;;9.05;71.34
70229;BME280;57617;51.988;5.854;2023-02-11T03:35:04;102852.22;;;9.06;70.32
70229;BME280;57617;51.988;5.854;2023-02-11T03:40:01;102843.28;;;9.05;70.84
70229;BME280;57617;51.988;5.854;2023-02-11T03:42:49;102841.38;;;9.06;70.99
70229;BME280;57617;51.988;5.854;2023-02-11T03:45:18;102838.03;;;9.04;70.58
70229;BME280;57617;51.988;5.854;2023-02-11T03:47:47;102826.31;;;9.03;70.51
70229;BME280;57617;51.988;5.854;2023-02-11T03:50:16;102822.78;;;9.03;71.52
70229;BME280;57617;51.988;5.854;2023-02-11T03:52:42;102820.44;;;9.00;70.88
70229;BME280;57617;51.988;5.854;2023-02-11T03:55:12;102828.38;;;9.01;71.53
70229;BME280;57617;51.988;5.854;2023-02-11T03:57:39;102815.00;;;9.00;71.15
70229;BME280;57617;51.988;5.854;2023-02-11T04:00:05;102826.84;;;9.07;71.50
70229;BME280;57617;51.988;5.854;2023-02-11T04:02:33;102833.94;;;9.08;71.24
70229;BME280;57617;51.988;5.854;2023-02-11T04:04:59;102842.06;;;9.08;71.26
70229;BME280;57617;51.988;5.854;2023-02-11T04:07:25;102847.09;;;9.11;70.91
70229;BME280;57617;51.988;5.854;2023-02-11T04:09:50;102857.13;;;9.10;71.24
70229;BME280;57617;51.988;5.854;2023-02-11T04:12:16;102862.84;;;9.15;71.31
70229;BME280;57617;51.988;5.854;2023-02-11T04:14:42;102868.28;;;9.15;71.38
70229;BME280;57617;51.988;5.854;2023-02-11T04:17:07;102865.72;;;9.14;70.67
70229;BME280;57617;51.988;5.854;2023-02-11T04:19:32;102869.09;;;9.16;70.89
70229;BME280;57617;51.988;5.854;2023-02-11T04:21:57;102877.06;;;9.17;71.37
70229;BME280;57617;51.988;5.854;2023-02-11T04:24:23;102874.34;;;9.17;71.17
70229;BME280;57617;51.988;5.854;2023-02-11T04:26:48;102865.09;;;9.12;70.85
70229;BME280;57617;51.988;5.854;2023-02-11T04:29:14;102865.38;;;9.17;71.17
70229;BME280;57617;51.988;5.854;2023-02-11T04:31:39;102862.00;;;9.15;71.22
70229;BME280;57617;51.988;5.854;2023-02-11T04:34:04;102866.94;;;9.11;70.93
70229;BME280;57617;51.988;5.854;2023-02-11T04:36:29;102858.63;;;9.13;71.36
70229;BME280;57617;51.988;5.854;2023-02-11T04:38:55;102858.47;;;9.14;71.20
70229;BME280;57617;51.988;5.854;2023-02-11T04:41:20;102867.41;;;9.15;71.34
70229;BME280;57617;51.988;5.854;2023-02-11T04:43:45;102870.81;;;9.17;71.21
70229;BME280;57617;51.988;5.854;2023-02-11T04:46:11;102828.75;;;8.98;71.44
70229;BME280;57617;51.988;5.854;2023-02-11T04:48:36;102847.31;;;9.09;71.22
70229;BME280;57617;51.988;5.854;2023-02-11T04:51:01;102860.13;;;9.15;71.18
70229;BME280;57617;51.988;5.854;2023-02-11T04:53:27;102859.28;;;9.15;71.75
70229;BME280;57617;51.988;5.854;2023-02-11T04:55:52;102862.84;;;9.15;71.33
70229;BME280;57617;51.988;5.854;2023-02-11T04:58:18;102856.22;;;9.18;71.03
70229;BME280;57617;51.988;5.854;2023-02-11T05:00:43;102851.16;;;9.15;71.54
70229;BME280;57617;51.988;5.854;2023-02-11T05:03:09;102858.75;;;9.19;71.51
70229;BME280;57617;51.988;5.854;2023-02-11T05:05:38;102853.03;;;9.14;71.47
70229;BME280;57617;51.988;5.854;2023-02-11T05:08:05;102850.03;;;9.09;71.72
70229;BME280;57617;51.988;5.854;2023-02-11T05:10:30;102854.88;;;9.14;71.36
70229;BME280;57617;51.988;5.854;2023-02-11T05:12:55;102852.00;;;9.15;71.45
70229;BME280;57617;51.988;5.854;2023-02-11T05:15:20;102856.41;;;9.16;71.40
70229;BME280;57617;51.988;5.854;2023-02-11T05:17:46;102846.19;;;9.18;71.95
70229;BME280;57617;51.988;5.854;2023-02-11T05:20:11;102850.81;;;9.18;71.28
70229;BME280;57617;51.988;5.854;2023-02-11T05:22:36;102861.81;;;9.16;71.84
70229;BME280;57617;51.988;5.854;2023-02-11T05:25:02;102863.31;;;9.19;71.42
70229;BME280;57617;51.988;5.854;2023-02-11T05:27:27;102862.47;;;9.18;71.85
70229;BME280;57617;51.988;5.854;2023-02-11T05:29:52;102863.50;;;9.17;71.57
70229;BME280;57617;51.988;5.854;2023-02-11T05:32:17;102866.69;;;9.21;71.51
70229;BME280;57617;51.988;5.854;2023-02-11T05:34:43;102863.78;;;9.22;72.03
70229;BME280;57617;51.988;5.854;2023-02-11T05:37:08;102858.38;;;9.22;71.84
70229;BME280;57617;51.988;5.854;2023-02-11T05:39:33;102861.09;;;9.22;71.95
70229;BME280;57617;51.988;5.854;2023-02-11T05:41:59;102858.38;;;9.22;71.74
70229;BME280;57617;51.988;5.854;2023-02-11T05:44:24;102870.91;;;9.23;72.09
70229;BME280;57617;51.988;5.854;2023-02-11T05:46:49;102867.19;;;9.24;71.97
70229;BME280;57617;51.988;5.854;2023-02-11T05:49:16;102862.59;;;9.25;72.10
70229;BME280;57617;51.988;5.854;2023-02-11T05:51:41;102866.81;;;9.27;71.88
70229;BME280;57617;51.988;5.854;2023-02-11T05:54:07;102856.81;;;9.28;71.48
70229;BME280;57617;51.988;5.854;2023-02-11T05:56:32;102858.66;;;9.27;71.64
70229;BME280;57617;51.988;5.854;2023-02-11T05:58:58;102863.06;;;9.28;72.12
70229;BME280;57617;51.988;5.854;2023-02-11T06:01:24;102866.16;;;9.25;72.27
70229;BME280;57617;51.988;5.854;2023-02-11T06:03:49;102869.34;;;9.29;71.33
70229;BME280;57617;51.988;5.854;2023-02-11T06:06:15;102864.94;;;9.28;72.13
70229;BME280;57617;51.988;5.854;2023-02-11T06:08:41;102873.09;;;9.28;72.31
70229;BME280;57617;51.988;5.854;2023-02-11T06:11:07;102877.66;;;9.27;71.97
70229;BME280;57617;51.988;5.854;2023-02-11T06:13:33;102881.41;;;9.26;71.81
70229;BME280;57617;51.988;5.854;2023-02-11T06:15:59;102879.88;;;9.24;72.06
70229;BME280;57617;51.988;5.854;2023-02-11T06:18:25;102871.59;;;9.25;71.63
70229;BME280;57617;51.988;5.854;2023-02-11T06:20:51;102870.72;;;9.25;71.69
70229;BME280;57617;51.988;5.854;2023-02-11T06:23:16;102870.56;;;9.26;72.12
70229;BME280;57617;51.988;5.854;2023-02-11T06:25:41;102866.97;;;9.26;71.77
70229;BME280;57617;51.988;5.854;2023-02-11T06:28:07;102861.47;;;9.19;72.16
70229;BME280;57617;51.988;5.854;2023-02-11T06:30:32;102867.19;;;9.24;71.96
70229;BME280;57617;51.988;5.854;2023-02-11T06:32:57;102868.88;;;9.25;71.72
70229;BME280;57617;51.988;5.854;2023-02-11T06:35:23;102864.47;;;9.24;71.72
70229;BME280;57617;51.988;5.854;2023-02-11T06:37:48;102866.69;;;9.21;71.78
70229;BME280;57617;51.988;5.854;2023-02-11T06:40:14;102872.31;;;9.19;72.39
70229;BME280;57617;51.988;5.854;2023-02-11T06:42:39;102867.53;;;9.21;72.23
70229;BME280;57617;51.988;5.854;2023-02-11T06:45:06;102861.66;;;9.18;71.92
70229;BME280;57617;51.988;5.854;2023-02-11T06:47:33;102880.06;;;9.22;72.44
70229;BME280;57617;51.988;5.854;2023-02-11T06:49:58;102870.91;;;9.23;71.96
70229;BME280;57617;51.988;5.854;2023-02-11T06:52:24;102871.59;;;9.25;72.38
70229;BME280;57617;51.988;5.854;2023-02-11T06:54:49;102871.59;;;9.25;72.34
70229;BME280;57617;51.988;5.854;2023-02-11T06:57:14;102873.63;;;9.23;71.98
70229;BME280;57617;51.988;5.854;2023-02-11T06:59:40;102880.91;;;9.23;72.06
70229;BME280;57617;51.988;5.854;2023-02-11T07:02:05;102879.03;;;9.23;72.82
70229;BME280;57617;51.988;5.854;2023-02-11T07:04:31;102873.13;;;9.20;72.01
70229;BME280;57617;51.988;5.854;2023-02-11T07:06:56;102882.59;;;9.24;72.46
70229;BME280;57617;51.988;5.854;2023-02-11T07:09:21;102878.03;;;9.24;72.20
70229;BME280;57617;51.988;5.854;2023-02-11T07:11:46;102876.31;;;9.23;72.43
70229;BME280;57617;51.988;5.854;2023-02-11T07:14:12;102891.38;;;9.26;72.60
70229;BME280;57617;51.988;5.854;2023-02-11T07:16:37;102891.59;;;9.24;72.99
70229;BME280;57617;51.988;5.854;2023-02-11T07:19:03;102877.53;;;9.21;72.36
70229;BME280;57617;51.988;5.854;2023-02-11T07:21:28;102900.38;;;9.26;72.35
70229;BME280;57617;51.988;5.854;2023-02-11T07:23:54;102898.31;;;9.28;72.65
70229;BME280;57617;51.988;5.854;2023-02-11T07:26:22;102909.84;;;9.30;72.77
70229;BME280;57617;51.988;5.854;2023-02-11T07:28:48;102911.53;;;9.31;73.07
70229;BME280;57617;51.988;5.854;2023-02-11T07:31:16;102897.09;;;9.31;72.71
70229;BME280;57617;51.988;5.854;2023-02-11T07:33:42;102891.50;;;9.32;72.96
70229;BME280;57617;51.988;5.854;2023-02-11T07:36:10;102899.66;;;9.32;72.94
70229;BME280;57617;51.988;5.854;2023-02-11T07:38:36;102905.53;;;9.36;72.29
70229;BME280;57617;51.988;5.854;2023-02-11T07:41:04;102913.69;;;9.36;72.40
70229;BME280;57617;51.988;5.854;2023-02-11T07:43:31;102907.44;;;9.35;72.46
70229;BME280;57617;51.988;5.854;2023-02-11T07:45:56;102905.06;;;9.32;72.44
70229;BME280;57617;51.988;5.854;2023-02-11T07:48:22;102904.41;;;9.30;72.66
70229;BME280;57617;51.988;5.854;2023-02-11T07:50:47;102910.78;;;9.37;73.09
70229;BME280;57617;51.988;5.854;2023-02-11T07:53:12;102909.59;;;9.40;73.11
70229;BME280;57617;51.988;5.854;2023-02-11T07:55:38;102909.59;;;9.40;72.88
70229;BME280;57617;51.988;5.854;2023-02-11T07:58:03;102906.22;;;9.38;73.10
70229;BME280;57617;51.988;5.854;2023-02-11T08:00:28;102904.63;;;9.43;73.18
70229;BME280;57617;51.988;5.854;2023-02-11T08:02:55;102905.09;;;9.47;72.93
70229;BME280;57617;51.988;5.854;2023-02-11T08:05:21;102899.91;;;9.45;72.89
70229;BME280;57617;51.988;5.854;2023-02-11T08:07:46;102905.78;;;9.49;73.27
70229;BME280;57617;51.988;5.854;2023-02-11T08:10:14;102907.13;;;9.53;73.18
70229;BME280;57617;51.988;5.854;2023-02-11T08:12:40;102912.53;;;9.53;72.75
70229;BME280;57617;51.988;5.854;2023-02-11T08:15:05;102911.50;;;9.54;72.72
70229;BME280;57617;51.988;5.854;2023-02-11T08:17:30;102910.47;;;9.55;73.35
70229;BME280;57617;51.988;5.854;2023-02-11T08:19:56;102913.31;;;9.61;72.87
70229;BME280;57617;51.988;5.854;2023-02-11T08:22:21;102908.91;;;9.60;72.96
70229;BME280;57617;51.988;5.854;2023-02-11T08:24:46;102905.16;;;9.61;73.16
70229;BME280;57617;51.988;5.854;2023-02-11T08:27:11;102904.50;;;9.59;73.14
70229;BME280;57617;51.988;5.854;2023-02-11T08:29:37;102908.06;;;9.60;73.49
70229;BME280;57617;51.988;5.854;2023-02-11T08:32:02;102910.22;;;9.64;73.19
70229;BME280;57617;51.988;5.854;2023-02-11T08:34:27;102909.75;;;9.61;72.87
70229;BME280;57617;51.988;5.854;2023-02-11T08:36:53;102915.00;;;9.62;73.37
70229;BME280;57617;51.988;5.854;2023-02-11T08:39:20;102916.03;;;9.61;73.47
70229;BME280;57617;51.988;5.854;2023-02-11T08:41:51;102907.22;;;9.59;73.57
70229;BME280;57617;51.988;5.854;2023-02-11T08:44:18;102909.91;;;9.59;72.95
70229;BME280;57617;51.988;5.854;2023-02-11T08:46:44;102922.94;;;9.64;72.70
70229;BME280;57617;51.988;5.854;2023-02-11T08:49:09;102925.28;;;9.67;73.70
70229;BME280;57617;51.988;5.854;2023-02-11T08:51:34;102927.16;;;9.66;73.38
70229;BME280;57617;51.988;5.854;2023-02-11T08:54:00;102921.88;;;9.73;73.42
70229;BME280;57617;51.988;5.854;2023-02-11T08:56:25;102933.53;;;9.73;73.48
70229;BME280;57617;51.988;5.854;2023-02-11T08:58:51;102935.72;;;9.78;73.26
70229;BME280;57617;51.988;5.854;2023-02-11T09:01:22;102939.94;;;9.80;73.06
70229;BME280;57617;51.988;5.854;2023-02-11T09:03:48;102937.22;;;9.80;73.43
70229;BME280;57617;51.988;5.854;2023-02-11T09:06:14;102948.00;;;9.88;73.41
70229;BME280;57617;51.988;5.854;2023-02-11T09:08:42;102951.84;;;9.94;73.37
70229;BME280;57617;51.988;5.854;2023-02-11T09:11:08;102942.28;;;9.98;73.13
70229;BME280;57617;51.988;5.854;2023-02-11T09:13:35;102947.72;;;9.98;72.97
70229;BME280;57617;51.988;5.854;2023-02-11T09:16:02;102943.63;;;10.02;73.40
70229;BME280;57617;51.988;5.854;2023-02-11T09:18:28;102946.16;;;10.03;73.38
70229;BME280;57617;51.988;5.854;2023-02-11T09:21:01;102954.97;;;10.05;73.49
70229;BME280;57617;51.988;5.854;2023-02-11T09:23:27;102962.75;;;10.08;72.99
70229;BME280;57617;51.988;5.854;2023-02-11T09:25:52;102952.25;;;10.05;73.02
70229;BME280;57617;51.988;5.854;2023-02-11T09:28:17;102956.13;;;10.11;73.58
70229;BME280;57617;51.988;5.854;2023-02-11T09:30:42;102972.69;;;10.16;73.31
70229;BME280;57617;51.988;5.854;2023-02-11T09:33:08;102963.34;;;10.18;73.33
70229;BME280;57617;51.988;5.854;2023-02-11T09:35:33;102954.53;;;10.16;73.32
70229;BME280;57617;51.988;5.854;2023-02-11T09:37:59;102966.97;;;10.25;73.33
70229;BME280;57617;51.988;5.854;2023-02-11T09:40:24;102961.19;;;10.28;72.98
70229;BME280;57617;51.988;5.854;2023-02-11T09:45:26;102975.41;;;10.30;73.21
70229;BME280;57617;51.988;5.854;2023-02-11T09:48:12;102979.28;;;10.36;73.08
70229;BME280;57617;51.988;5.854;2023-02-11T09:50:42;102975.53;;;10.37;73.30
70229;BME280;57617;51.988;5.854;2023-02-11T09:55:46;102984.59;;;10.44;73.19
70229;BME280;57617;51.988;5.854;2023-02-11T09:58:15;102974.59;;;10.44;73.28
70229;BME280;57617;51.988;5.854;2023-02-11T10:09:20;103005.69;;;10.56;72.98
70229;BME280;57617;51.988;5.854;2023-02-11T10:17:27;103001.41;;;10.62;72.92
70229;BME280;57617;51.988;5.854;2023-02-11T10:21:05;103018.16;;;10.65;72.94
70229;BME280;57617;51.988;5.854;2023-02-11T10:23:16;103031.00;;;10.71;72.80
70229;BME280;57617;51.988;5.854;2023-02-11T10:25:45;103034.00;;;10.76;72.65
70229;BME280;57617;51.988;5.854;2023-02-11T10:28:23;103038.03;;;10.80;72.67
70229;BME280;57617;51.988;5.854;2023-02-11T10:31:05;103032.03;;;10.85;72.53
70229;BME280;57617;51.988;5.854;2023-02-11T10:36:04;103036.91;;;10.89;72.64
70229;BME280;57617;51.988;5.854;2023-02-11T10:38:29;103040.66;;;10.88;72.45
70229;BME280;57617;51.988;5.854;2023-02-11T10:40:55;103036.44;;;10.86;72.33
70229;BME280;57617;51.988;5.854;2023-02-11T10:43:24;103035.50;;;10.93;72.30
70229;BME280;57617;51.988;5.854;2023-02-11T10:45:52;103040.38;;;10.98;72.69
70229;BME280;57617;51.988;5.854;2023-02-11T10:48:46;103036.44;;;11.00;72.47
70229;BME280;57617;51.988;5.854;2023-02-11T10:51:24;103040.06;;;11.07;72.09
70229;BME280;57617;51.988;5.854;2023-02-11T10:54:16;103044.28;;;11.10;72.04
70229;BME280;57617;51.988;5.854;2023-02-11T10:56:50;103041.00;;;11.14;72.21
70229;BME280;57617;51.988;5.854;2023-02-11T10:59:29;103042.28;;;11.18;72.18
70229;BME280;57617;51.988;5.854;2023-02-11T11:04:39;103052.31;;;11.32;71.67
70229;BME280;57617;51.988;5.854;2023-02-11T11:07:12;103051.09;;;11.35;71.78
70229;BME280;57617;51.988;5.854;2023-02-11T11:09:46;103053.03;;;11.41;71.81
70229;BME280;57617;51.988;5.854;2023-02-11T11:15:02;103046.09;;;11.53;71.42
70229;BME280;57617;51.988;5.854;2023-02-11T11:17:37;103047.75;;;11.54;71.59
70229;BME280;57617;51.988;5.854;2023-02-11T11:22:48;103049.44;;;11.55;71.34
70229;BME280;57617;51.988;5.854;2023-02-11T11:25:41;103053.03;;;11.55;71.42
70229;BME280;57617;51.988;5.854;2023-02-11T11:28:21;103054.03;;;11.54;71.01
70229;BME280;57617;51.988;5.854;2023-02-11T11:30:48;103049.63;;;11.53;71.15
70229;BME280;57617;51.988;5.854;2023-02-11T11:33:22;103060.50;;;11.53;71.16
70229;BME280;57617;51.988;5.854;2023-02-11T11:35:57;103053.50;;;11.59;71.49
70229;BME280;57617;51.988;5.854;2023-02-11T11:38:23;103052.72;;;11.65;71.08
70229;BME280;57617;51.988;5.854;2023-02-11T11:41:12;103051.75;;;11.72;71.18
70229;BME280;57617;51.988;5.854;2023-02-11T11:43:37;103056.34;;;11.72;70.83
70229;BME280;57617;51.988;5.854;2023-02-11T11:46:03;103053.19;;;11.68;71.23
70229;BME280;57617;51.988;5.854;2023-02-11T11:48:40;103048.41;;;11.70;70.65
70229;BME280;57617;51.988;5.854;2023-02-11T11:51:11;103044.63;;;11.71;71.40
70229;BME280;57617;51.988;5.854;2023-02-11T11:56:23;103035.94;;;11.82;70.27
70229;BME280;57617;51.988;5.854;2023-02-11T11:58:49;103036.59;;;11.84;70.46
70229;BME280;57617;51.988;5.854;2023-02-11T12:09:23;103027.38;;;12.06;70.83
70229;BME280;57617;51.988;5.854;2023-02-11T12:22:09;103016.19;;;12.22;69.95
70229;BME280;57617;51.988;5.854;2023-02-11T12:35:53;103015.91;;;12.38;69.30
70229;BME280;57617;51.988;5.854;2023-02-11T12:38:51;103011.13;;;12.47;68.50
70229;BME280;57617;51.988;5.854;2023-02-11T12:50:22;103015.19;;;12.57;68.42
70229;BME280;57617;51.988;5.854;2023-02-11T12:55:25;103017.50;;;12.60;68.11
70229;BME280;57617;51.988;5.854;2023-02-11T12:57:53;103020.66;;;12.64;68.54
70229;BME280;57617;51.988;5.854;2023-02-11T13:00:23;103025.34;;;12.70;68.80
70229;BME280;57617;51.988;5.854;2023-02-11T13:02:59;103030.56;;;12.71;67.67
70229;BME280;57617;51.988;5.854;2023-02-11T13:05:32;103024.50;;;12.69;68.26
70229;BME280;57617;51.988;5.854;2023-02-11T13:08:18;103021.16;;;12.74;67.53
70229;BME280;57617;51.988;5.854;2023-02-11T13:10:48;103024.09;;;12.72;67.89
70229;BME280;57617;51.988;5.854;2023-02-11T13:13:22;103027.47;;;12.74;68.00
70229;BME280;57617;51.988;5.854;2023-02-11T13:16:00;103019.03;;;12.69;67.65
70229;BME280;57617;51.988;5.854;2023-02-11T13:24:00;103016.06;;;12.64;68.16
70229;BME280;57617;51.988;5.854;2023-02-11T13:29:22;103015.47;;;12.69;67.75
70229;BME280;57617;51.988;5.854;2023-02-11T13:32:10;103012.72;;;12.69;67.98
70229;BME280;57617;51.988;5.854;2023-02-11T13:39:59;102994.06;;;12.66;67.96
70229;BME280;57617;51.988;5.854;2023-02-11T13:42:24;102998.22;;;12.62;67.97
70229;BME280;57617;51.988;5.854;2023-02-11T13:44:50;103003.06;;;12.60;68.36
70229;BME280;57617;51.988;5.854;2023-02-11T13:49:50;103019.00;;;12.63;68.12
70229;BME280;57617;51.988;5.854;2023-02-11T13:52:25;103016.69;;;12.60;68.17
70229;BME280;57617;51.988;5.854;2023-02-11T13:54:54;103014.16;;;12.58;67.84
70229;BME280;57617;51.988;5.854;2023-02-11T13:59:52;103012.84;;;12.54;68.35
70229;BME280;57617;51.988;5.854;2023-02-11T14:18:57;103014.53;;;12.55;68.13
70229;BME280;57617;51.988;5.854;2023-02-11T14:21:28;103014.34;;;12.57;68.39
70229;BME280;57617;51.988;5.854;2023-02-11T14:29:22;103017.56;;;12.67;67.74
70229;BME280;57617;51.988;5.854;2023-02-11T14:32:02;103024.50;;;12.69;67.82
70229;BME280;57617;51.988;5.854;2023-02-11T14:37:36;103026.84;;;12.72;67.51
70229;BME280;57617;51.988;5.854;2023-02-11T14:40:24;103028.69;;;12.72;67.78
70229;BME280;57617;51.988;5.854;2023-02-11T14:42:52;103029.94;;;12.69;67.58
70229;BME280;57617;51.988;5.854;2023-02-11T14:45:22;103035.00;;;12.72;67.55
70229;BME280;57617;51.988;5.854;2023-02-11T14:50:27;103021.63;;;12.77;67.51
70229;BME280;57617;51.988;5.854;2023-02-11T14:52:57;103022.25;;;12.79;67.96
70229;BME280;57617;51.988;5.854;2023-02-11T14:55:31;103027.09;;;12.84;67.60
70229;BME280;57617;51.988;5.854;2023-02-11T14:58:12;103009.25;;;12.81;67.15
70229;BME280;57617;51.988;5.854;2023-02-11T15:00:59;103026.25;;;12.83;67.19
70229;BME280;57617;51.988;5.854;2023-02-11T15:08:25;103026.03;;;12.78;67.49
70229;BME280;57617;51.988;5.854;2023-02-11T15:10:51;103028.13;;;12.83;67.87
70229;BME280;57617;51.988;5.854;2023-02-11T15:13:21;103027.09;;;12.84;67.24
70229;BME280;57617;51.988;5.854;2023-02-11T15:15:53;103029.63;;;12.85;67.57
70229;BME280;57617;51.988;5.854;2023-02-11T15:18:21;103043.06;;;12.87;67.44
70229;BME280;57617;51.988;5.854;2023-02-11T15:20:49;103045.59;;;12.88;67.61
70229;BME280;57617;51.988;5.854;2023-02-11T15:23:21;103050.00;;;12.89;67.64
70229;BME280;57617;51.988;5.854;2023-02-11T15:25:48;103051.69;;;12.90;67.07
70229;BME280;57617;51.988;5.854;2023-02-11T15:28:46;103058.38;;;12.88;67.24
70229;BME280;57617;51.988;5.854;2023-02-11T15:31:18;103067.16;;;12.83;67.66
70229;BME280;57617;51.988;5.854;2023-02-11T15:33:45;103057.94;;;12.84;67.61
70229;BME280;57617;51.988;5.854;2023-02-11T15:36:11;103054.56;;;12.82;67.33
70229;BME280;57617;51.988;5.854;2023-02-11T15:38:38;103052.69;;;12.83;67.65
70229;BME280;57617;51.988;5.854;2023-02-11T15:41:04;103050.16;;;12.81;67.57